D/T METAR WX W/SPE G/SPE TEMP DEWP FEEL
25/05/22 01:50 EGPE 250050Z AUTO 20006KT 9999 BKN046/// 10/06 Q1000 6.9mph 10°C 6°C 9.6°C
25/05/22 00:50 EGPE 242350Z AUTO 22004KT 9999 NCD 09/05 Q1000 4.6mph 9°C 5°C 8.3°C
25/05/22 00:20 EGPE 242320Z AUTO 20006KT 9999 NCD 09/06 Q1001 6.9mph 9°C 6°C 8.6°C
24/05/22 23:50 EGPE 242250Z AUTO 21007KT 9999 NCD 10/07 Q1001 8.1mph 10°C 7°C 10.0°C
24/05/22 23:20 EGPE 242220Z AUTO 20006KT 9999 BKN034/// 10/07 Q1001 6.9mph 10°C 7°C 10.0°C
24/05/22 22:50 EGPE 242150Z AUTO 21004KT 9999 SCT032/// OVC038/// 10/08 Q1001 4.6mph 10°C 8°C 10.4°C
24/05/22 22:20 EGPE 242120Z 22004KT 9999 -SHRA SCT033 11/08 Q1002 -SHRA 4.6mph 11°C 8°C 11.4°C
24/05/22 21:50 EGPE 242050Z 27005KT 9999 VCSH SCT035 11/07 Q1001 VCSH 5.8mph 11°C 7°C 11.0°C
24/05/22 21:20 EGPE 242020Z 28004KT 9999 FEW015 SCT035 11/07 Q1001 4.6mph 11°C 7°C 11.0°C
24/05/22 20:50 EGPE 241950Z 28006KT 9999 FEW033 SCT045 12/07 Q1001 6.9mph 12°C 7°C 12.0°C
24/05/22 20:20 EGPE 241920Z 23004KT 9999 FEW032 SCT045 13/08 Q1001 4.6mph 13°C 8°C 13.4°C
24/05/22 19:50 EGPE 241850Z 21004KT 9999 VCSH FEW033 SCT045 13/09 Q1001 VCSH 4.6mph 13°C 9°C 13.8°C
24/05/22 19:20 EGPE 241820Z 22003KT 9999 SCT033 13/08 Q1001 3.5mph 13°C 8°C 13.4°C
24/05/22 18:50 EGPE 241750Z 19003KT 9999 VCSH FEW018 SCT034CB 13/10 Q1001 VCSH 3.5mph 13°C 10°C 14.3°C
24/05/22 18:20 EGPE 241720Z 20003KT 160V230 9999 -SHRA FEW012 SCT038CB 13/07 Q1001 -SHRA 3.5mph 13°C 7°C 13.0°C
24/05/22 17:50 EGPE 241650Z 16003KT 120V200 9999 VCSH FEW020 SCT036CB 14/08 Q1001 VCSH 3.5mph 14°C 8°C 14.4°C
24/05/22 17:20 EGPE 241620Z 12003KT 090V160 9999 VCSH FEW025 SCT034CB 14/08 Q1001 VCSH 3.5mph 14°C 8°C 14.4°C
24/05/22 16:50 EGPE 241550Z 17005KT 130V210 9999 VCSH FEW020 SCT037CB 13/09 Q1001 VCSH 5.8mph 13°C 9°C 13.8°C
24/05/22 16:20 EGPE 241520Z VRB01KT 9999 VCSH FEW025 FEW034CB BKN040 14/06 Q1001 VCSH 1.2mph 14°C 6°C 13.6°C
24/05/22 15:50 EGPE 241450Z VRB02KT 9999 VCSH FEW025 FEW034CB SCT045 15/06 Q1001 VCSH 2.3mph 15°C 6°C 14.6°C
24/05/22 15:20 EGPE 241420Z VRB02KT 9999 VCSH FEW022 BKN045 14/06 Q1001 VCSH 2.3mph 14°C 6°C 13.6°C
24/05/22 14:50 EGPE 241350Z 30003KT 270V340 9999 VCSH FEW022 BKN044 13/07 Q1001 VCSH 3.5mph 13°C 7°C 13.0°C
24/05/22 14:20 EGPE 241320Z 36004KT 9999 VCSH FEW022 SCT049 13/06 Q1001 VCSH 4.6mph 13°C 6°C 12.6°C
24/05/22 13:50 EGPE 241250Z 35006KT 9999 VCSH FEW020 SCT036 13/07 Q1001 VCSH 6.9mph 13°C 7°C 13.0°C
24/05/22 13:20 EGPE 241220Z VRB02KT 9999 FEW020 SCT034 14/06 Q1001 2.3mph 14°C 6°C 13.6°C
24/05/22 12:50 EGPE 241150Z 31004KT 9999 FEW030 SCT045 13/07 Q1001 4.6mph 13°C 7°C 13.0°C
24/05/22 12:20 EGPE 241120Z VRB02KT 9999 VCSH FEW030 SCT043 13/06 Q1001 VCSH 2.3mph 13°C 6°C 12.6°C
24/05/22 11:50 EGPE 241050Z 02003KT 9999 FEW030 SCT040 11/08 Q1001 3.5mph 11°C 8°C 11.4°C
24/05/22 11:20 EGPE 241020Z 31005KT 230V340 9999 SHRA FEW030 SCT038 12/08 Q1001 SHRA 5.8mph 12°C 8°C 12.4°C
24/05/22 10:50 EGPE 240950Z VRB02KT 9999 VCSH FEW038 SCT040 12/07 Q1000 VCSH 2.3mph 12°C 7°C 12.0°C
24/05/22 10:20 EGPE 240920Z VRB02KT 9999 FEW030 SCT040 12/07 Q1001 2.3mph 12°C 7°C 12.0°C
24/05/22 09:50 EGPE 240850Z VRB02KT 9999 FEW028 SCT030 12/07 Q1001 2.3mph 12°C 7°C 12.0°C
24/05/22 09:20 EGPE 240820Z 22003KT 9999 FEW030 11/08 Q1001 3.5mph 11°C 8°C 11.4°C
24/05/22 08:50 EGPE 240750Z 24003KT 200V280 9999 FEW028 11/08 Q1001 3.5mph 11°C 8°C 11.4°C
24/05/22 08:20 EGPE 240720Z 23004KT 9999 FEW026 10/08 Q1000 4.6mph 10°C 8°C 10.4°C
24/05/22 07:50 EGPE 240650Z 24004KT 9999 FEW024 10/08 Q1000 4.6mph 10°C 8°C 10.4°C
24/05/22 07:20 EGPE 240620Z 23005KT 9999 FEW010 09/08 Q1000 5.8mph 9°C 8°C 9.4°C
24/05/22 06:50 EGPE 240550Z 24004KT 9999 FEW008 09/08 Q1000 4.6mph 9°C 8°C 9.4°C
24/05/22 06:20 EGPE 240520Z 24001KT 9999 FEW006 08/08 Q1000 1.2mph 8°C 8°C 8.4°C
24/05/22 05:50 EGPE 240450Z 22001KT 9999 FEW001 08/07 Q1000 1.2mph 8°C 7°C 8.0°C
24/05/22 05:20 EGPE 240420Z 17001KT 9999 FEW002 07/07 Q1000 1.2mph 7°C 7°C 7.0°C
24/05/22 04:50 EGPE 240350Z 00000KT 9999 FEW002 07/07 Q1000 7°C 7°C 7.0°C
24/05/22 04:20 EGPE 240320Z 00000KT 9999 FEW012 08/07 Q1000 8°C 7°C 8.0°C
24/05/22 03:50 EGPE 240250Z 22001KT 9999 FEW012 08/07 Q1000 1.2mph 8°C 7°C 8.0°C
24/05/22 03:20 EGPE 240220Z 25002KT 9999 FEW012 SCT024 08/07 Q1000 2.3mph 8°C 7°C 8.0°C
24/05/22 02:50 EGPE 240150Z 19001KT 9999 FEW012 SCT024 09/08 Q1000 1.2mph 9°C 8°C 9.4°C
24/05/22 02:20 EGPE 240120Z AUTO 22002KT 9999 BKN028/// 08/08 Q1000 2.3mph 8°C 8°C 8.4°C
24/05/22 01:50 EGPE 240050Z AUTO 24004KT 9999 FEW028/// BKN037/// 08/08 Q1000 4.6mph 8°C 8°C 8.4°C
24/05/22 01:20 EGPE 240020Z AUTO 24002KT 9999 SCT012/// BKN028/// OVC042/// 09/08 Q1000 2.3mph 9°C 8°C 9.4°C
24/05/22 00:50 EGPE 232350Z AUTO 23002KT 9999 BKN032/// OVC040/// 09/08 Q1000 2.3mph 9°C 8°C 9.4°C
24/05/22 00:20 EGPE 232320Z AUTO 21001KT 9999 BKN031/// OVC044/// 09/08 Q1000 1.2mph 9°C 8°C 9.4°C
23/05/22 23:50 EGPE 232250Z AUTO 00000KT 9999 OVC027/// 10/08 Q1000 10°C 8°C 10.4°C
23/05/22 23:20 EGPE 232220Z AUTO 30002KT 9999 BKN028/// OVC043/// 09/08 Q1000 2.3mph 9°C 8°C 9.4°C
23/05/22 22:50 EGPE 232150Z AUTO 30004KT 9999 -RA BKN044/// 09/08 Q1000 -RA 4.6mph 9°C 8°C 9.4°C
23/05/22 22:20 EGPE 232120Z AUTO 27001KT 9999 FEW035/// BKN044/// 09/08 Q1000 1.2mph 9°C 8°C 9.4°C
23/05/22 21:50 EGPE 232050Z 00000KT 9999 FEW010 SCT048 10/08 Q0999 10°C 8°C 10.4°C
23/05/22 21:20 EGPE 232020Z 19002KT 9999 FEW010 SCT048 10/08 Q0999 2.3mph 10°C 8°C 10.4°C
23/05/22 20:50 EGPE 231950Z 18001KT 9999 FEW010 SCT048 10/08 Q0999 1.2mph 10°C 8°C 10.4°C
23/05/22 20:20 EGPE 231920Z 16001KT 9999 FEW014 10/08 Q1000 1.2mph 10°C 8°C 10.4°C
23/05/22 19:50 EGPE 231850Z 00000KT 9999 FEW014 SCT048 10/08 Q0999 10°C 8°C 10.4°C
23/05/22 19:20 EGPE 231820Z 00000KT 9999 FEW014 BKN048 10/08 Q0999 10°C 8°C 10.4°C
23/05/22 18:50 EGPE 231750Z VRB01KT 9999 FEW010 BKN036 11/08 Q0999 1.2mph 11°C 8°C 11.4°C
23/05/22 18:20 EGPE 231720Z 32002KT 9999 FEW008 BKN036 11/08 Q0999 2.3mph 11°C 8°C 11.4°C
23/05/22 17:50 EGPE 231650Z 33003KT 290V350 9999 FEW010 SCT018 11/08 Q0999 3.5mph 11°C 8°C 11.4°C
23/05/22 17:20 EGPE 231620Z 35004KT 9999 -RA FEW005 SCT018 11/08 Q0999 RESHRA -RA 4.6mph 11°C 8°C 11.4°C
23/05/22 16:50 EGPE 231550Z 32006KT 9999 4000S SHRA FEW003 SCT011 BKN040 11/09 Q0999 SHRA 6.9mph 11°C 9°C 11.8°C
23/05/22 16:20 EGPE 231520Z 34006KT 300V360 9999 4000S SHRA SCT003 BKN011 BKN032 11/08 Q0999 SHRA 6.9mph 11°C 8°C 11.4°C
23/05/22 15:50 EGPE 231450Z 34003KT 5000 -RA SCT003 BKN011 10/09 Q0999 RERA -RA 3.5mph 10°C 9°C 10.8°C
23/05/22 15:20 EGPE 231420Z 01004KT 310V040 5000 RA BKN003 BKN014 10/09 Q0999 RA 4.6mph 10°C 9°C 10.8°C
23/05/22 14:50 EGPE 231350Z 03005KT 4000 -SHRA FEW001 SCT006 BKN011 11/09 Q0999 -SHRA 5.8mph 11°C 9°C 11.8°C
23/05/22 14:20 EGPE 231320Z 02005KT 4000 -RA FEW001 BKN004 BKN010 11/10 Q0999 -RA 5.8mph 11°C 10°C 12.3°C
23/05/22 13:20 EGPE 231220Z 35007KT 4000 -SHRA BKN004 BKN013 OVC019 11/10 Q0998 -SHRA 8.1mph 11°C 10°C 12.3°C
23/05/22 12:20 EGPE 231120Z 02007KT 7000 -SHRA FEW003 BKN011 BKN022 11/10 Q0998 -SHRA 8.1mph 11°C 10°C 12.3°C
23/05/22 11:50 EGPE 231050Z 02004KT 7000 -SHRA FEW003 BKN013 BKN022 12/10 Q0998 -SHRA 4.6mph 12°C 10°C 13.3°C
23/05/22 11:20 EGPE 231020Z 03006KT 9999 4000N VCSH FEW003 SCT010 BKN020 12/10 Q0998 VCSH 6.9mph 12°C 10°C 13.3°C
23/05/22 10:50 EGPE 230950Z 02003KT 350V050 9999 5000N VCSH FEW003 BKN009 12/10 Q0998 VCSH 3.5mph 12°C 10°C 13.3°C
23/05/22 10:20 EGPE 230920Z 35003KT 310V020 9999 VCSH FEW003 SCT009 BKN019 12/10 Q0998 VCSH 3.5mph 12°C 10°C 13.3°C
23/05/22 09:50 EGPE 230850Z 33004KT 260V010 9999 -SHRA FEW005 SCT019 BKN030 12/10 Q0998 -SHRA 4.6mph 12°C 10°C 13.3°C
23/05/22 09:20 EGPE 230820Z 27003KT 9999 VCSH FEW008 SCT029 BKN035 12/09 Q0998 VCSH 3.5mph 12°C 9°C 12.8°C
23/05/22 08:50 EGPE 230750Z 30003KT 260V330 9999 VCSH FEW008 BKN029 12/10 Q0998 VCSH 3.5mph 12°C 10°C 13.3°C
23/05/22 08:20 EGPE 230720Z 29003KT 9999 FEW008 BKN030 12/09 Q0998 3.5mph 12°C 9°C 12.8°C
23/05/22 07:50 EGPE 230650Z 31003KT 270V340 9999 FEW007 BKN030 11/10 Q0998 3.5mph 11°C 10°C 12.3°C
23/05/22 07:20 EGPE 230620Z 25003KT 9999 FEW007 BKN043 11/10 Q0998 RESHRA 3.5mph 11°C 10°C 12.3°C
23/05/22 06:50 EGPE 230550Z 26003KT 9999 SHRA FEW006 BKN043 11/10 Q0998 SHRA 3.5mph 11°C 10°C 12.3°C
23/05/22 06:20 EGPE 230520Z 00000KT 9999 -SHRA FEW006 BKN043 10/09 Q0998 -SHRA 10°C 9°C 10.8°C
23/05/22 05:50 EGPE 230450Z AUTO VRB01KT 9999 OVC046/// 09/08 Q0998 1.2mph 9°C 8°C 9.4°C
23/05/22 05:20 EGPE 230420Z AUTO 23002KT 9999 BKN043/// 09/08 Q0998 2.3mph 9°C 8°C 9.4°C
23/05/22 04:50 EGPE 230350Z AUTO 22004KT 9999 SCT046/// 08/07 Q0999 4.6mph 8°C 7°C 8.0°C
23/05/22 03:50 EGPE 230250Z AUTO 22004KT 9999 SCT049/// 08/07 Q0999 4.6mph 8°C 7°C 8.0°C
23/05/22 03:20 EGPE 230220Z AUTO 23005KT 9999 FEW039/// 07/06 Q0999 5.8mph 7°C 6°C 6.6°C
23/05/22 02:50 EGPE 230150Z AUTO 22005KT 9999 NCD 08/07 Q0999 5.8mph 8°C 7°C 8.0°C
23/05/22 02:20 EGPE 230120Z AUTO 23006KT 9999 NCD 08/07 Q0999 6.9mph 8°C 7°C 8.0°C
23/05/22 01:50 EGPE 230050Z AUTO 24006KT 9999 SCT034/// 10/08 Q0999 6.9mph 10°C 8°C 10.4°C
23/05/22 01:20 EGPE 230020Z AUTO 22008KT 9999 NCD 10/08 Q0999 9.2mph 10°C 8°C 10.4°C
23/05/22 00:50 EGPE 222350Z AUTO 26007KT 9999 NCD 10/09 Q0999 8.1mph 10°C 9°C 10.8°C
23/05/22 00:20 EGPE 222320Z AUTO 24007KT 9999 NCD 11/09 Q1000 8.1mph 11°C 9°C 11.8°C